Time;durP1;ratioP1;P1;durP2;ratioP2;P2;SDS_P1;SDS_P2;PMS_P1;PMS_P2;Temp;Humidity;BMP_temperature;BMP_pressure;BME280_temperature;BME280_humidity;BME280_pressure;Samples;Min_cycle;Max_cycle;Signal;HPM_P1;HPM_P2
2023/12/31 00:00:00;;;;;;;2.25;1.27;;;;;;;7.83;100.00;100396.03;5053992;28;20126;-76
2023/12/31 00:02:25;;;;;;;1.92;1.20;;;;;;;7.83;100.00;100403.97;5063258;28;20040;-76
2023/12/31 00:04:51;;;;;;;1.83;1.10;;;;;;;7.90;100.00;100397.69;5065311;28;20041;-76
2023/12/31 00:07:16;;;;;;;4.05;1.60;;;;;;;7.93;100.00;100389.72;5070238;28;20041;-76
2023/12/31 00:09:42;;;;;;;5.35;1.50;;;;;;;7.91;100.00;100381.84;5070382;28;20036;-76
2023/12/31 00:12:07;;;;;;;6.35;1.40;;;;;;;7.92;100.00;100380.06;5053668;28;20082;-76
2023/12/31 00:14:33;;;;;;;5.07;1.52;;;;;;;7.94;100.00;100365.09;5070547;28;20044;-76
2023/12/31 00:16:59;;;;;;;6.32;1.77;;;;;;;7.93;100.00;100356.28;5069962;28;20037;-76
2023/12/31 00:19:26;;;;;;;3.40;1.10;;;;;;;7.99;100.00;100357.97;5053619;28;20390;-76
2023/12/31 00:21:51;;;;;;;4.28;1.42;;;;;;;7.98;100.00;100351.81;5071621;28;20047;-76
2023/12/31 00:24:17;;;;;;;1.73;1.27;;;;;;;7.97;100.00;100344.81;5053629;28;20032;-76
2023/12/31 00:26:42;;;;;;;1.70;1.10;;;;;;;7.99;100.00;100344.78;5045215;28;20037;-76
2023/12/31 00:29:10;;;;;;;6.32;1.50;;;;;;;7.98;100.00;100325.44;5071478;28;20075;-76
2023/12/31 00:31:37;;;;;;;5.05;1.38;;;;;;;8.03;100.00;100329.75;5070324;28;20033;-76
2023/12/31 00:34:03;;;;;;;5.68;1.33;;;;;;;8.02;100.00;100328.03;5060993;28;20051;-76
2023/12/31 00:36:31;;;;;;;2.47;1.13;;;;;;;8.00;100.00;100328.06;5071445;28;20040;-76
2023/12/31 00:38:56;;;;;;;1.98;1.20;;;;;;;7.95;100.00;100312.31;5066710;28;20037;-76
2023/12/31 00:41:22;;;;;;;3.03;1.38;;;;;;;7.91;100.00;100307.13;5055994;28;20510;-76
2023/12/31 00:43:47;;;;;;;5.55;1.20;;;;;;;7.96;100.00;100305.28;5074419;28;20384;-76
2023/12/31 00:46:13;;;;;;;2.88;1.40;;;;;;;7.97;100.00;100291.22;5075355;28;20036;-76
2023/12/31 00:48:39;;;;;;;4.72;1.27;;;;;;;7.95;100.00;100285.94;5074071;28;20043;-76
2023/12/31 00:51:04;;;;;;;4.30;1.45;;;;;;;7.99;100.00;100281.50;5074047;28;20033;-76
2023/12/31 00:53:30;;;;;;;4.68;1.38;;;;;;;8.02;100.00;100277.94;5071612;28;20052;-76
2023/12/31 00:55:56;;;;;;;9.35;1.55;;;;;;;8.04;100.00;100279.63;5073829;28;20043;-77
2023/12/31 00:58:21;;;;;;;6.72;1.50;;;;;;;8.05;100.00;100296.31;5073935;28;20570;-76
2023/12/31 01:00:47;;;;;;;4.32;1.30;;;;;;;8.04;100.00;100295.47;5053879;28;20499;-76
2023/12/31 01:03:12;;;;;;;5.68;1.73;;;;;;;8.04;100.00;100282.28;5073619;28;20044;-76
2023/12/31 01:05:38;;;;;;;1.10;0.95;;;;;;;8.06;100.00;100285.75;5056783;28;20128;-76
2023/12/31 01:08:04;;;;;;;2.55;1.30;;;;;;;8.04;100.00;100277.00;5070003;28;20079;-76
2023/12/31 01:10:29;;;;;;;3.42;1.27;;;;;;;8.09;100.00;100272.50;5073386;28;20036;-76
2023/12/31 01:12:55;;;;;;;3.90;1.33;;;;;;;8.05;100.00;100273.47;5071150;28;20032;-76
2023/12/31 01:15:22;;;;;;;2.50;1.30;;;;;;;8.02;100.00;100262.13;5055762;28;20082;-76
2023/12/31 01:17:48;;;;;;;3.42;1.50;;;;;;;8.02;100.00;100260.34;5073325;28;20029;-76
2023/12/31 01:20:15;;;;;;;6.72;2.60;;;;;;;8.01;100.00;100257.72;5073472;28;20042;-76
2023/12/31 01:22:41;;;;;;;3.38;1.40;;;;;;;8.00;100.00;100248.09;5073323;28;20044;-76
2023/12/31 01:25:07;;;;;;;5.38;1.67;;;;;;;7.97;100.00;100243.75;5074576;28;20028;-76
2023/12/31 01:27:32;;;;;;;2.75;1.40;;;;;;;7.94;100.00;100244.69;5073418;28;20040;-76
2023/12/31 01:29:58;;;;;;;2.67;1.08;;;;;;;7.97;100.00;100234.06;5074422;28;20040;-76
2023/12/31 01:32:23;;;;;;;2.53;1.25;;;;;;;7.95;100.00;100221.81;5073398;28;20093;-76
2023/12/31 01:34:49;;;;;;;4.93;1.20;;;;;;;7.97;100.00;100220.88;5074630;28;20471;-76
2023/12/31 01:37:15;;;;;;;2.35;1.27;;;;;;;7.95;100.00;100222.69;5073227;28;20507;-76
2023/12/31 01:39:41;;;;;;;5.30;1.50;;;;;;;7.96;100.00;100213.88;5056489;28;20028;-76
2023/12/31 01:42:07;;;;;;;1.80;1.17;;;;;;;7.97;100.00;100214.75;5073152;28;20059;-76
2023/12/31 01:44:33;;;;;;;2.25;1.30;;;;;;;7.96;100.00;100208.63;5074163;28;20468;-76
2023/12/31 01:46:59;;;;;;;2.28;1.40;;;;;;;7.96;100.00;100210.34;5072975;28;20124;-76
2023/12/31 01:49:26;;;;;;;4.55;1.42;;;;;;;7.95;100.00;100206.84;5072783;28;20060;-76
2023/12/31 01:51:52;;;;;;;3.58;1.38;;;;;;;7.96;100.00;100194.53;5072075;28;20040;-76
2023/12/31 01:54:18;;;;;;;3.20;1.55;;;;;;;7.98;100.00;100185.69;5072755;28;20114;-76
2023/12/31 01:56:44;;;;;;;5.53;1.42;;;;;;;7.95;100.00;100192.81;5039422;28;20033;-76
2023/12/31 01:59:10;;;;;;;2.22;1.13;;;;;;;7.94;100.00;100178.78;5074125;28;20090;-76
2023/12/31 02:01:37;;;;;;;2.45;1.33;;;;;;;8.01;100.00;100179.50;5055895;28;20055;-76
2023/12/31 02:04:03;;;;;;;2.40;1.20;;;;;;;7.96;100.00;100174.34;5074017;28;20086;-76
2023/12/31 02:06:28;;;;;;;2.30;1.20;;;;;;;7.96;100.00;100162.91;5055759;28;20033;-76
2023/12/31 02:08:53;;;;;;;2.70;1.50;;;;;;;7.96;100.00;100168.16;5073924;28;20048;-76
2023/12/31 02:11:19;;;;;;;3.05;1.20;;;;;;;7.90;100.00;100163.03;5073670;28;20040;-76
2023/12/31 02:13:45;;;;;;;2.03;1.23;;;;;;;7.93;100.00;100163.84;5071292;28;20098;-76
2023/12/31 02:16:14;;;;;;;4.25;1.40;;;;;;;7.90;100.00;100155.13;5038947;28;20136;-76
2023/12/31 02:18:40;;;;;;;2.17;1.33;;;;;;;7.92;100.00;100142.78;5073038;28;20040;-76
2023/12/31 02:21:06;;;;;;;1.35;1.20;;;;;;;7.92;100.00;100140.16;5069835;28;20128;-76
2023/12/31 02:23:32;;;;;;;3.72;1.30;;;;;;;7.90;100.00;100144.59;5072160;28;20127;-76
2023/12/31 02:26:09;;;;;;;1.27;1.10;;;;;;;7.86;100.00;100130.63;5072234;28;20039;-76
2023/12/31 02:28:35;;;;;;;2.67;1.58;;;;;;;7.86;100.00;100128.00;5060290;28;20064;-76
2023/12/31 02:31:00;;;;;;;3.00;1.50;;;;;;;7.89;100.00;100135.81;5088595;28;20554;-76
2023/12/31 02:33:26;;;;;;;1.73;1.30;;;;;;;7.88;100.00;100120.03;5072247;28;20067;-76
2023/12/31 02:35:52;;;;;;;3.88;1.60;;;;;;;7.90;100.00;100112.97;5088472;28;20119;-76
2023/12/31 02:38:17;;;;;;;4.30;1.38;;;;;;;7.92;100.00;100098.84;5073156;28;20040;-76
2023/12/31 02:40:43;;;;;;;2.53;1.20;;;;;;;7.89;100.00;100091.00;5071486;28;20039;-76
2023/12/31 02:43:09;;;;;;;4.13;1.45;;;;;;;7.91;100.00;100081.31;5071580;28;20136;-76
2023/12/31 02:45:35;;;;;;;3.70;1.45;;;;;;;7.90;100.00;100078.69;5055274;28;20135;-76
2023/12/31 02:48:00;;;;;;;3.60;1.35;;;;;;;7.90;100.00;100073.41;5073231;28;20049;-77
2023/12/31 02:50:26;;;;;;;5.20;1.60;;;;;;;7.91;100.00;100077.78;5072992;28;20037;-77
2023/12/31 02:52:53;;;;;;;2.17;1.25;;;;;;;7.91;100.00;100069.88;5083233;28;20066;-76
2023/12/31 02:55:19;;;;;;;4.60;1.60;;;;;;;7.90;100.00;100062.88;5072792;28;20033;-76
2023/12/31 02:57:45;;;;;;;1.90;1.30;;;;;;;7.91;100.00;100056.69;5088533;28;20040;-77
2023/12/31 03:00:11;;;;;;;3.70;1.50;;;;;;;7.89;100.00;100053.25;5071099;28;20028;-76
2023/12/31 03:02:37;;;;;;;3.00;1.30;;;;;;;7.86;100.00;100046.28;5071773;28;20400;-77
2023/12/31 03:05:03;;;;;;;2.47;1.50;;;;;;;7.89;100.00;100054.09;5054529;28;20036;-76
2023/12/31 03:07:29;;;;;;;1.95;1.33;;;;;;;7.89;100.00;100040.06;5071503;28;20033;-76
2023/12/31 03:09:54;;;;;;;3.47;1.50;;;;;;;7.84;100.00;100034.88;5072462;28;20068;-76
2023/12/31 03:12:19;;;;;;;2.50;1.50;;;;;;;7.84;100.00;100034.88;5071398;28;20383;-77
2023/12/31 03:14:45;;;;;;;5.30;1.40;;;;;;;7.87;100.00;100026.91;5062409;28;20044;-77
2023/12/31 03:17:10;;;;;;;2.20;1.40;;;;;;;7.85;100.00;100025.22;5070783;28;20044;-76
2023/12/31 03:19:36;;;;;;;7.20;1.52;;;;;;;7.83;100.00;100016.47;5051115;28;20047;-76
2023/12/31 03:22:03;;;;;;;2.97;1.63;;;;;;;7.82;100.00;100007.69;5064795;28;20055;-76
2023/12/31 03:24:29;;;;;;;3.53;1.70;;;;;;;7.83;100.00;99995.38;5072428;28;20173;-76
2023/12/31 03:26:55;;;;;;;2.90;1.45;;;;;;;7.82;100.00;99980.47;5070808;28;20082;-77
2023/12/31 03:29:20;;;;;;;1.80;1.30;;;;;;;7.81;100.00;99982.22;5072138;28;20040;-77
2023/12/31 03:31:46;;;;;;;5.03;1.52;;;;;;;7.79;100.00;99973.50;5071175;28;20119;-77
2023/12/31 03:34:11;;;;;;;6.05;1.70;;;;;;;7.81;100.00;99966.41;5087192;28;20039;-77
2023/12/31 03:36:37;;;;;;;2.05;1.40;;;;;;;7.80;100.00;99963.81;5054167;28;20036;-77
2023/12/31 03:39:02;;;;;;;2.60;1.30;;;;;;;7.77;100.00;99950.72;5072270;28;20063;-76
2023/12/31 03:41:28;;;;;;;5.47;1.65;;;;;;;7.72;100.00;99941.16;5070865;28;20426;-76
2023/12/31 03:43:53;;;;;;;3.92;1.60;;;;;;;7.74;100.00;99936.72;5034230;28;20071;-76
2023/12/31 03:46:20;;;;;;;1.75;1.45;;;;;;;7.72;100.00;99924.50;5066993;28;20047;-76
2023/12/31 03:48:45;;;;;;;2.70;1.50;;;;;;;7.76;100.00;99915.56;5066783;28;20143;-77
2023/12/31 03:51:11;;;;;;;3.08;1.42;;;;;;;7.77;100.00;99924.38;5070672;28;20203;-76
2023/12/31 03:53:38;;;;;;;2.25;1.55;;;;;;;7.76;100.00;99912.94;5071582;28;20448;-76
2023/12/31 03:56:04;;;;;;;3.28;1.55;;;;;;;7.75;100.00;99906.81;5070687;28;20119;-76
2023/12/31 03:58:29;;;;;;;2.47;1.38;;;;;;;7.75;100.00;99908.59;5087277;28;20040;-77
2023/12/31 04:00:54;;;;;;;2.42;1.33;;;;;;;7.78;100.00;99899.75;5050538;28;20124;-76
2023/12/31 04:03:20;;;;;;;2.67;1.50;;;;;;;7.79;100.00;99889.16;5034735;28;20040;-76
2023/12/31 04:05:45;;;;;;;2.55;1.75;;;;;;;7.78;100.00;99887.41;5070391;28;20036;-76
2023/12/31 04:08:11;;;;;;;1.92;1.33;;;;;;;7.79;100.00;99883.91;5070557;28;20040;-77
2023/12/31 04:10:36;;;;;;;3.60;1.55;;;;;;;7.79;100.00;99873.34;5070227;28;20078;-76
2023/12/31 04:13:02;;;;;;;3.63;1.70;;;;;;;7.80;100.00;99874.22;5087343;28;20040;-77
2023/12/31 04:15:28;;;;;;;3.42;1.55;;;;;;;7.79;100.00;99861.91;5069207;28;20043;-76
2023/12/31 04:17:54;;;;;;;1.40;1.30;;;;;;;7.77;100.00;99850.59;5077352;28;20105;-76
2023/12/31 04:20:19;;;;;;;1.50;1.40;;;;;;;7.78;100.00;99847.88;5070329;28;20079;-76
2023/12/31 04:22:45;;;;;;;2.53;1.30;;;;;;;7.77;100.00;99848.81;5070331;28;20132;-76
2023/12/31 04:25:10;;;;;;;1.92;1.48;;;;;;;7.75;100.00;99848.84;5070232;28;20090;-76
2023/12/31 04:27:38;;;;;;;4.15;1.83;;;;;;;7.75;100.00;99840.06;5070280;28;20369;-77
2023/12/31 04:30:06;;;;;;;2.40;1.50;;;;;;;7.73;100.00;99832.19;5071494;28;20123;-77
2023/12/31 04:32:31;;;;;;;4.50;1.77;;;;;;;7.74;100.00;99833.09;5071755;28;20447;-76
2023/12/31 04:34:57;;;;;;;2.40;1.48;;;;;;;7.68;100.00;99826.19;5071092;28;20029;-76
2023/12/31 04:37:22;;;;;;;4.32;1.60;;;;;;;7.70;100.00;99819.09;5087139;28;20067;-76
2023/12/31 04:39:48;;;;;;;5.97;1.92;;;;;;;7.68;100.00;99818.28;5070128;28;20051;-76
2023/12/31 04:42:14;;;;;;;4.88;1.70;;;;;;;7.67;100.00;99813.06;5071446;28;20043;-76
2023/12/31 04:44:41;;;;;;;2.42;1.52;;;;;;;7.69;100.00;99816.50;5071520;28;20340;-76
2023/12/31 04:47:07;;;;;;;4.60;1.70;;;;;;;7.66;100.00;99804.25;5053534;28;20055;-76
2023/12/31 04:49:32;;;;;;;3.60;2.00;;;;;;;7.66;100.00;99804.25;5071293;28;20033;-77
2023/12/31 04:51:58;;;;;;;4.35;1.70;;;;;;;7.67;100.00;99805.16;5069898;28;20406;-77
2023/12/31 04:54:23;;;;;;;3.15;2.13;;;;;;;7.61;100.00;99793.00;5071136;28;20060;-77
2023/12/31 04:56:49;;;;;;;2.63;1.80;;;;;;;7.62;100.00;99792.09;5054371;28;20127;-77
2023/12/31 04:59:14;;;;;;;2.08;1.65;;;;;;;7.63;100.00;99787.69;5069931;28;20043;-76
2023/12/31 05:01:39;;;;;;;6.82;2.58;;;;;;;7.64;100.00;99774.47;5040865;28;20384;-76
2023/12/31 05:04:05;;;;;;;3.40;1.67;;;;;;;7.68;100.00;99767.34;5069923;28;20033;-77
2023/12/31 05:06:30;;;;;;;4.10;1.80;;;;;;;7.67;100.00;99771.75;5071270;28;20068;-77
2023/12/31 05:08:56;;;;;;;2.67;1.85;;;;;;;7.67;100.00;99766.50;5071053;28;20036;-77
2023/12/31 05:11:25;;;;;;;4.03;2.15;;;;;;;7.67;100.00;99752.47;5062669;28;20115;-77
2023/12/31 05:13:51;;;;;;;2.80;1.80;;;;;;;7.70;100.00;99757.63;5063328;28;20036;-77
2023/12/31 05:16:16;;;;;;;3.60;2.03;;;;;;;7.72;100.00;99740.88;5065214;28;20436;-75
2023/12/31 05:18:52;;;;;;;2.78;1.80;;;;;;;7.73;100.00;99734.69;5065704;28;20444;-76
2023/12/31 05:21:17;;;;;;;3.15;1.83;;;;;;;7.75;100.00;99742.56;5069408;28;20372;-76
2023/12/31 05:23:43;;;;;;;2.42;1.90;;;;;;;7.78;100.00;99739.84;5071231;28;20041;-76
2023/12/31 05:26:08;;;;;;;4.18;1.60;;;;;;;7.82;100.00;99724.81;5067516;28;20391;-76
2023/12/31 05:28:37;;;;;;;6.60;1.90;;;;;;;7.80;100.00;99716.94;5064573;28;20047;-76
2023/12/31 05:31:03;;;;;;;2.45;1.88;;;;;;;7.81;100.00;99715.16;5067487;28;20036;-76
2023/12/31 05:33:28;;;;;;;3.10;2.08;;;;;;;7.81;100.00;99699.34;5065994;28;20036;-76
2023/12/31 05:35:54;;;;;;;2.65;1.90;;;;;;;7.83;100.00;99722.13;5049138;28;20067;-76
2023/12/31 05:38:19;;;;;;;3.28;2.08;;;;;;;7.84;100.00;99702.78;5073091;28;20483;-76
2023/12/31 05:40:45;;;;;;;3.65;2.05;;;;;;;7.85;100.00;99698.34;5068762;28;20502;-76
2023/12/31 05:43:11;;;;;;;4.07;1.85;;;;;;;7.88;100.00;99685.09;5072883;28;20036;-76
2023/12/31 05:45:37;;;;;;;4.95;2.08;;;;;;;7.92;100.00;99684.94;5071282;28;20037;-76
2023/12/31 05:48:02;;;;;;;4.28;1.90;;;;;;;7.90;100.00;99678.00;5073135;28;20215;-76
2023/12/31 05:50:28;;;;;;;4.72;2.10;;;;;;;7.89;100.00;99689.47;5039649;28;20401;-76
2023/12/31 05:52:53;;;;;;;2.60;1.67;;;;;;;7.88;100.00;99678.03;5055805;28;20044;-76
2023/12/31 05:55:19;;;;;;;2.92;2.00;;;;;;;7.89;100.00;99671.88;5069558;28;20072;-76
2023/12/31 05:57:44;;;;;;;2.40;2.00;;;;;;;7.90;100.00;99667.47;5072854;28;20075;-76
2023/12/31 06:00:11;;;;;;;2.42;1.92;;;;;;;7.93;100.00;99672.63;5073714;28;20047;-76
2023/12/31 06:02:40;;;;;;;4.03;2.00;;;;;;;7.94;100.00;99669.09;5070021;28;20109;-76
2023/12/31 06:05:06;;;;;;;4.20;2.53;;;;;;;7.93;100.00;99675.25;5073632;28;20086;-76
2023/12/31 06:07:31;;;;;;;12.10;5.93;;;;;;;7.93;100.00;99675.25;5074174;28;20483;-76
2023/12/31 06:09:57;;;;;;;6.65;2.80;;;;;;;7.93;100.00;99656.81;5073810;28;20041;-76
2023/12/31 06:12:23;;;;;;;3.05;2.00;;;;;;;7.95;100.00;99668.19;5073792;28;20045;-76
2023/12/31 06:14:48;;;;;;;4.35;2.10;;;;;;;7.89;100.00;99655.19;5071439;28;20040;-76
2023/12/31 06:17:14;;;;;;;3.25;2.33;;;;;;;7.94;100.00;99646.22;5070569;28;20032;-76
2023/12/31 06:19:42;;;;;;;2.40;1.95;;;;;;;7.93;100.00;99646.25;5071734;28;20032;-76
2023/12/31 06:22:08;;;;;;;3.08;2.20;;;;;;;7.91;100.00;99633.16;5070760;28;20127;-76
2023/12/31 06:24:33;;;;;;;2.60;1.95;;;;;;;7.92;100.00;99634.00;5070795;28;20391;-77
2023/12/31 06:26:59;;;;;;;2.72;2.00;;;;;;;7.90;100.00;99626.13;5067670;28;20056;-76
2023/12/31 06:29:25;;;;;;;3.58;2.10;;;;;;;7.88;100.00;99620.03;5067930;28;20491;-77
2023/12/31 06:31:51;;;;;;;3.28;2.17;;;;;;;7.88;100.00;99629.72;5064677;28;20044;-76
2023/12/31 06:34:16;;;;;;;4.35;1.85;;;;;;;7.86;100.00;99613.97;5069372;28;20052;-77
2023/12/31 06:36:42;;;;;;;3.97;2.25;;;;;;;7.83;100.00;99611.41;5053735;28;20125;-77
2023/12/31 06:39:08;;;;;;;4.63;2.00;;;;;;;7.82;100.00;99616.75;5068554;28;20041;-77
2023/12/31 06:41:33;;;;;;;5.15;2.30;;;;;;;7.85;100.00;99614.00;5070322;28;20032;-76
2023/12/31 06:43:59;;;;;;;2.47;1.92;;;;;;;7.85;100.00;99601.69;5070548;28;20059;-77
2023/12/31 06:46:25;;;;;;;4.07;2.30;;;;;;;7.88;100.00;99591.06;5054241;28;20399;-77
2023/12/31 06:48:51;;;;;;;3.88;2.10;;;;;;;7.92;100.00;99590.06;5071053;28;20047;-77
2023/12/31 06:51:16;;;;;;;2.40;1.70;;;;;;;7.88;100.00;99572.59;5068537;28;20117;-77
2023/12/31 06:53:42;;;;;;;3.20;2.17;;;;;;;7.89;100.00;99570.84;5072388;28;20495;-77
2023/12/31 06:56:08;;;;;;;2.83;1.90;;;;;;;7.90;100.00;99568.16;5072022;28;20115;-77
2023/12/31 06:58:37;;;;;;;3.47;2.10;;;;;;;7.89;100.00;99571.72;5072706;28;20036;-77
2023/12/31 07:01:03;;;;;;;2.83;2.00;;;;;;;7.86;100.00;99566.53;5050566;28;20091;-77
2023/12/31 07:03:29;;;;;;;3.15;2.08;;;;;;;7.90;100.00;99570.78;5050142;28;20456;-77
2023/12/31 07:05:54;;;;;;;2.42;1.90;;;;;;;7.91;100.00;99561.97;5065683;28;20036;-77
2023/12/31 07:08:20;;;;;;;3.72;2.10;;;;;;;7.91;100.00;99554.06;5069816;28;20028;-77
2023/12/31 07:10:45;;;;;;;3.10;2.03;;;;;;;7.90;100.00;99541.78;5031665;28;20033;-77
2023/12/31 07:13:11;;;;;;;2.90;2.00;;;;;;;7.96;100.00;99549.50;5050011;28;20048;-77
2023/12/31 07:15:37;;;;;;;2.80;1.90;;;;;;;8.00;100.00;99546.78;5069968;28;20036;-76
2023/12/31 07:18:03;;;;;;;3.70;2.03;;;;;;;8.05;100.00;99552.75;5067957;28;20108;-77
2023/12/31 07:20:28;;;;;;;3.05;1.90;;;;;;;8.08;100.00;99539.47;5071449;28;20119;-77
2023/12/31 07:22:54;;;;;;;3.92;2.25;;;;;;;8.08;100.00;99531.56;5060767;28;20033;-77
2023/12/31 07:25:20;;;;;;;3.08;2.20;;;;;;;8.09;100.00;99528.03;5069850;28;20162;-77
2023/12/31 07:27:46;;;;;;;2.92;2.08;;;;;;;8.11;100.00;99527.06;5046628;28;20043;-78
2023/12/31 07:30:12;;;;;;;2.75;1.90;;;;;;;8.14;100.00;99526.09;5068878;28;20025;-77
2023/12/31 07:32:38;;;;;;;2.88;2.08;;;;;;;8.16;100.00;99519.88;5072444;28;20043;-77
2023/12/31 07:35:07;;;;;;;3.55;2.17;;;;;;;8.18;100.00;99511.88;5070277;28;20044;-77
2023/12/31 07:37:33;;;;;;;3.88;2.03;;;;;;;8.22;100.00;99504.75;5054675;28;20045;-77
2023/12/31 07:39:58;;;;;;;2.38;2.00;;;;;;;8.27;100.00;99508.94;5071536;28;20047;-77
2023/12/31 07:42:24;;;;;;;3.15;2.20;;;;;;;8.29;100.00;99503.63;5078304;28;20072;-76
2023/12/31 07:44:49;;;;;;;4.03;2.38;;;;;;;8.32;100.00;99503.53;5070287;28;20017;-77
2023/12/31 07:47:15;;;;;;;3.35;2.22;;;;;;;8.32;100.00;99499.09;5067075;28;20059;-77
2023/12/31 07:49:41;;;;;;;3.03;1.80;;;;;;;8.37;100.00;99498.94;5064278;28;20033;-77
2023/12/31 07:52:06;;;;;;;2.65;2.05;;;;;;;8.44;100.00;99487.31;5062120;28;20107;-77
2023/12/31 07:54:32;;;;;;;4.22;2.55;;;;;;;8.50;100.00;99488.88;5070880;28;20090;-76
2023/12/31 07:56:58;;;;;;;3.33;2.30;;;;;;;8.52;99.98;99476.47;5065899;28;20479;-77
2023/12/31 07:59:24;;;;;;;3.85;2.42;;;;;;;8.55;100.00;99479.84;5070769;28;20036;-77
2023/12/31 08:01:49;;;;;;;6.78;2.90;;;;;;;8.59;99.76;99489.41;5052457;28;20440;-77
2023/12/31 08:04:15;;;;;;;5.93;2.83;;;;;;;8.65;100.00;99492.75;5069133;28;20211;-77
2023/12/31 08:06:40;;;;;;;5.95;3.97;;;;;;;8.67;100.00;99488.28;5071354;28;20183;-76
2023/12/31 08:09:05;;;;;;;7.93;4.80;;;;;;;8.70;100.00;99481.09;5071881;28;20592;-76
2023/12/31 08:11:31;;;;;;;9.48;5.32;;;;;;;8.69;100.00;99478.53;5071651;28;20036;-77
2023/12/31 08:13:57;;;;;;;6.07;3.70;;;;;;;8.72;100.00;99478.41;5070561;28;20625;-77
2023/12/31 08:16:22;;;;;;;5.35;3.30;;;;;;;8.76;100.00;99483.53;5069735;28;20044;-77
2023/12/31 08:18:48;;;;;;;5.55;3.60;;;;;;;8.79;100.00;99472.84;5070459;28;20044;-77
2023/12/31 08:21:13;;;;;;;9.18;3.85;;;;;;;8.82;99.95;99459.53;5070534;28;20039;-76
2023/12/31 08:23:39;;;;;;;4.43;2.70;;;;;;;8.89;99.81;99461.97;5053793;28;20470;-77
2023/12/31 08:26:05;;;;;;;3.83;3.03;;;;;;;8.95;99.46;99469.63;5053993;28;20028;-77
2023/12/31 08:28:30;;;;;;;3.17;2.20;;;;;;;9.04;99.52;99464.03;5070584;28;20484;-77
2023/12/31 08:30:56;;;;;;;5.45;1.92;;;;;;;9.06;99.16;99470.13;5071853;28;20082;-78
2023/12/31 08:33:22;;;;;;;2.50;1.65;;;;;;;9.11;99.64;99468.16;5050523;28;20460;-76
2023/12/31 08:35:48;;;;;;;2.40;1.67;;;;;;;9.12;99.11;99461.94;5062432;28;20099;-76
2023/12/31 08:38:13;;;;;;;3.10;2.10;;;;;;;9.20;98.58;99470.47;5071605;28;20111;-76
2023/12/31 08:40:39;;;;;;;2.30;1.80;;;;;;;9.18;98.96;99468.78;5071752;28;20080;-76
2023/12/31 08:43:04;;;;;;;3.22;1.85;;;;;;;9.15;99.45;99460.97;5071611;28;20028;-75
2023/12/31 08:45:32;;;;;;;3.10;1.98;;;;;;;9.19;99.89;99460.78;5086999;28;20431;-75
2023/12/31 08:47:58;;;;;;;6.60;2.63;;;;;;;9.21;100.00;99477.44;5071526;28;20036;-75
2023/12/31 08:50:23;;;;;;;4.90;2.97;;;;;;;9.21;100.00;99468.66;5053542;28;20490;-76
2023/12/31 08:52:49;;;;;;;4.90;3.22;;;;;;;9.11;100.00;99465.53;5070164;28;20139;-75
2023/12/31 08:55:15;;;;;;;4.70;2.50;;;;;;;9.07;100.00;99481.53;5072268;28;20124;-76
2023/12/31 08:57:44;;;;;;;3.33;1.95;;;;;;;9.02;100.00;99463.22;5071451;28;20487;-75
2023/12/31 09:00:11;;;;;;;2.80;2.05;;;;;;;8.98;100.00;99466.91;5069876;28;20059;-76
2023/12/31 09:02:36;;;;;;;2.80;1.95;;;;;;;9.02;100.00;99469.34;5073121;28;20036;-74
2023/12/31 09:05:02;;;;;;;6.82;1.92;;;;;;;8.97;100.00;99473.09;5073023;28;20181;-77
2023/12/31 09:07:27;;;;;;;2.97;1.95;;;;;;;8.97;100.00;99471.31;5075175;28;20121;-75
2023/12/31 09:09:53;;;;;;;3.25;1.85;;;;;;;8.90;100.00;99488.31;5074861;28;20123;-75
2023/12/31 09:12:20;;;;;;;2.38;1.80;;;;;;;8.83;100.00;99473.63;5073468;28;20100;-74
2023/12/31 09:14:45;;;;;;;2.05;1.60;;;;;;;8.85;100.00;99478.81;5053507;28;20053;-74
2023/12/31 09:17:11;;;;;;;2.58;1.67;;;;;;;8.72;100.00;99495.09;5070718;28;20142;-74
2023/12/31 09:19:38;;;;;;;1.30;1.15;;;;;;;8.71;100.00;99495.19;5056894;28;20093;-74
2023/12/31 09:22:04;;;;;;;6.05;1.90;;;;;;;8.63;100.00;99492.81;5074573;28;20531;-75
2023/12/31 09:24:31;;;;;;;2.42;1.80;;;;;;;8.66;100.00;99499.75;5073229;28;20158;-75
2023/12/31 09:26:56;;;;;;;2.08;1.50;;;;;;;8.72;100.00;99495.09;5090285;28;20111;-75
2023/12/31 09:29:22;;;;;;;2.42;1.88;;;;;;;8.60;100.00;99504.34;5074280;28;20450;-75
2023/12/31 09:31:47;;;;;;;3.08;1.85;;;;;;;8.55;100.00;99500.13;5073512;28;20028;-76
2023/12/31 09:34:13;;;;;;;3.58;1.63;;;;;;;8.58;100.00;99497.34;5074538;28;20391;-75
2023/12/31 09:36:38;;;;;;;2.28;1.52;;;;;;;8.55;100.00;99487.78;5073138;28;20369;-76
2023/12/31 09:39:04;;;;;;;2.33;1.50;;;;;;;8.56;100.00;99512.41;5053208;28;20048;-75
2023/12/31 09:41:31;;;;;;;2.03;1.67;;;;;;;8.56;100.00;99507.13;5070007;28;20041;-75
2023/12/31 09:43:57;;;;;;;2.67;1.67;;;;;;;8.60;100.00;99514.91;5089977;28;20478;-75
2023/12/31 09:46:23;;;;;;;2.10;1.40;;;;;;;8.65;100.00;99516.50;5074119;28;20036;-75
2023/12/31 09:48:50;;;;;;;3.65;1.70;;;;;;;8.74;100.00;99524.09;5089953;28;20414;-76
2023/12/31 09:51:19;;;;;;;2.10;1.30;;;;;;;8.60;100.00;99516.66;5074182;28;20119;-75
2023/12/31 09:53:46;;;;;;;1.58;1.20;;;;;;;8.69;100.00;99512.84;5074051;28;20365;-75
2023/12/31 09:56:17;;;;;;;1.77;1.23;;;;;;;8.64;100.00;99522.69;5068842;28;20045;-75
2023/12/31 09:58:43;;;;;;;2.13;1.38;;;;;;;8.69;100.00;99516.31;5073237;28;20356;-75
2023/12/31 10:01:09;;;;;;;3.42;1.15;;;;;;;8.71;100.00;99527.69;5072001;28;20052;-78
2023/12/31 10:03:36;;;;;;;1.23;1.05;;;;;;;8.68;100.00;99535.72;5055211;28;20048;-76
2023/12/31 10:06:03;;;;;;;2.63;1.02;;;;;;;8.68;100.00;99535.72;5072246;28;20402;-76
2023/12/31 10:08:29;;;;;;;1.23;1.00;;;;;;;8.66;100.00;99540.19;5072422;28;20036;-76
2023/12/31 10:10:56;;;;;;;3.72;1.48;;;;;;;8.64;100.00;99531.47;5073836;28;20387;-77
2023/12/31 10:13:22;;;;;;;1.27;1.00;;;;;;;8.70;100.00;99518.03;5061498;28;20140;-76
2023/12/31 10:15:47;;;;;;;2.85;0.85;;;;;;;8.74;100.00;99522.31;5065121;28;20473;-77
2023/12/31 10:18:13;;;;;;;3.38;1.10;;;;;;;8.66;100.00;99529.63;5073212;28;20138;-76
2023/12/31 10:20:39;;;;;;;2.75;1.00;;;;;;;8.70;100.00;99506.63;5069645;28;20438;-76
2023/12/31 10:23:05;;;;;;;2.45;1.15;;;;;;;8.68;99.62;99513.72;5055553;28;20045;-77
2023/12/31 10:25:30;;;;;;;3.72;1.60;;;;;;;8.72;98.95;99518.84;5071552;28;20075;-76
2023/12/31 10:27:56;;;;;;;3.55;1.52;;;;;;;8.69;99.72;99518.13;5073214;28;20078;-77
2023/12/31 10:30:21;;;;;;;1.98;1.10;;;;;;;8.70;99.59;99514.53;5072076;28;20514;-78
2023/12/31 10:32:48;;;;;;;4.82;1.27;;;;;;;8.65;100.00;99514.69;5049515;28;20098;-76
2023/12/31 10:35:18;;;;;;;5.78;1.60;;;;;;;8.61;100.00;99521.03;5059789;28;20548;-78
2023/12/31 10:37:44;;;;;;;3.00;1.40;;;;;;;8.66;100.00;99520.88;5073411;28;20028;-76
2023/12/31 10:40:18;;;;;;;2.70;1.58;;;;;;;8.56;100.00;99529.09;5071525;28;20105;-77
2023/12/31 10:42:55;;;;;;;4.70;2.00;;;;;;;8.47;100.00;99520.63;5072985;28;20036;-76
2023/12/31 10:45:22;;;;;;;3.10;1.90;;;;;;;8.39;100.00;99529.66;5052733;28;20032;-77
2023/12/31 10:47:53;;;;;;;4.45;1.33;;;;;;;8.48;100.00;99525.88;5072146;28;20024;-76
2023/12/31 10:50:26;;;;;;;3.10;1.50;;;;;;;8.46;100.00;99529.47;5070518;28;20040;-76
2023/12/31 10:52:55;;;;;;;3.00;1.23;;;;;;;8.42;100.00;99517.28;5059954;28;20147;-77
2023/12/31 10:55:21;;;;;;;2.83;1.30;;;;;;;8.41;100.00;99537.53;5071997;28;20036;-76
2023/12/31 10:57:47;;;;;;;3.20;1.25;;;;;;;8.39;100.00;99526.13;5072708;28;20063;-82
2023/12/31 11:00:13;;;;;;;4.05;1.33;;;;;;;8.42;100.00;99515.50;5072717;28;20035;-78
2023/12/31 11:02:41;;;;;;;2.33;1.10;;;;;;;8.42;100.00;99518.16;5047271;28;20186;-77
2023/12/31 11:05:07;;;;;;;3.75;1.20;;;;;;;8.46;100.00;99517.13;5072367;28;20056;-77
2023/12/31 11:07:36;;;;;;;7.60;1.50;;;;;;;8.46;100.00;99518.94;5070008;28;20044;-77
2023/12/31 11:10:02;;;;;;;2.45;1.13;;;;;;;8.58;100.00;99527.28;5054376;28;20387;-77
2023/12/31 11:12:28;;;;;;;4.07;1.30;;;;;;;8.52;100.00;99531.88;5066785;28;20106;-77
2023/12/31 11:15:02;;;;;;;3.38;1.20;;;;;;;8.50;100.00;99526.66;5070253;28;20155;-76
2023/12/31 11:17:43;;;;;;;2.13;1.10;;;;;;;8.78;100.00;99544.19;5072720;28;20032;-77
2023/12/31 11:20:51;;;;;;;2.47;1.03;;;;;;;8.66;100.00;99528.78;5072248;28;20581;-77
2023/12/31 11:23:35;;;;;;;3.50;1.13;;;;;;;8.51;100.00;99544.22;5071771;28;20068;-78
2023/12/31 11:26:02;;;;;;;3.50;1.15;;;;;;;8.63;100.00;99537.66;5071053;28;20051;-77